Aquilla, Alabama
Current Conditions -  °F | °C
As of 9:58 AM on Thursday 23 Oct 2014 (Local Time) from KMEI Reporting Station
Clear Clear  
Wind Chill: 57°   Ceiling: Unl
Heat Index: 57°   Visibility: 10mi
Dew Point: 44°   Wind: 7mph
Humidity: 62%   Direction: 60°ENE
Pressure: 30.17"   Gusts: NA
Location:  31.6272°N, 88.354°W
Report Text: KMEI 231458Z 06006KT 10SM CLR 14/07 A3017 RMK AO2 SLP216 T01390067 51011
Loading
Personal Weather Stations






























Interactive Weather Map
Tropical Storm Tracking
New forecast layout! Learn more

10-Day Weather Forecast

Advertisements
Track Severe Weather on mobile